»·PEaware :: N149CD KSBP-KVNY

N149CD :: KSBP-KVNY

FLIGHT INFORMATION

Flight Status: Arrived
Operator: Privately registered:
United States
More flights under this callsign
Pilot: Nathan E. (30132)
Aircraft: CESSNA 172 SKYHAWK
(C172)
More flights by this aircraft type
Origin: KSBP San Luis Co Regl
United States
Destination: KVNY Van Nuys
United States
More flights between these airports :: More routes between these airports
Route: RZS V186 FIM
File this flight plan on PilotEdge
Remarks: TEC route SBAP37
Altitude:
(Current/Filed)
7,000ft
Speed:
(Current/Filed)
110kts
Departed: 21-Sep-20 03:30 PM
Arrived: 21-Sep-20 04:54 PM
Distance/Time
Traveled:
123nm/1:23
Distance/Time
To Go:
Arrived

Flight Plot

Page will automatically refresh every two minutes.


Map Options




Map Legend


Flown Route
Filed Route
Departure Airport
Arrival Airport
Navaid (VOR, NDB)
Fix

Horizontal Profiles

Position Reports

Time Latitude Longitude Heading Altitude Ground
Speed
21-Sep-20 15:26 35.232970 -120.631990 217 216ft 0kts
21-Sep-20 15:27 35.232970 -120.631990 217 216ft 0kts
21-Sep-20 15:28 35.232732 -120.632779 243 216ft 11kts
21-Sep-20 15:29 35.242644 -120.649960 305 771ft 71kts
21-Sep-20 15:30 35.253853 -120.669223 304 1709ft 69kts
21-Sep-20 15:31 35.265357 -120.688298 304 2604ft 70kts
21-Sep-20 15:32 35.277340 -120.707263 304 3447ft 71kts
21-Sep-20 15:33 35.271365 -120.720742 159 4234ft 84kts
21-Sep-20 15:34 35.251371 -120.704611 152 4987ft 89kts
21-Sep-20 15:35 35.229627 -120.683369 139 5635ft 98kts
21-Sep-20 15:36 35.211327 -120.659781 140 6408ft 88kts
21-Sep-20 15:37 35.194508 -120.638217 141 7011ft 94kts
21-Sep-20 15:38 35.172316 -120.610024 139 7017ft 115kts
21-Sep-20 15:39 35.150473 -120.582071 139 7022ft 116kts
21-Sep-20 15:40 35.127970 -120.553266 139 7023ft 116kts
21-Sep-20 15:41 35.105646 -120.524713 139 7027ft 117kts
21-Sep-20 15:42 35.083130 -120.495935 139 7030ft 117kts
21-Sep-20 15:43 35.060517 -120.467058 140 7034ft 118kts
21-Sep-20 15:44 35.037746 -120.438005 140 7037ft 118kts
21-Sep-20 15:45 35.014969 -120.408967 140 7037ft 118kts
21-Sep-20 15:46 34.992377 -120.380189 140 7037ft 117kts
21-Sep-20 15:47 34.969859 -120.351532 140 7037ft 117kts
21-Sep-20 15:48 34.947396 -120.322968 140 7034ft 116kts
21-Sep-20 15:50 34.925048 -120.294576 140 7034ft 116kts
21-Sep-20 15:51 34.902864 -120.266414 140 7034ft 115kts
21-Sep-20 15:52 34.880581 -120.238152 140 7036ft 115kts
21-Sep-20 15:53 34.858462 -120.210118 140 7027ft 114kts
21-Sep-20 15:54 34.836559 -120.182385 140 7017ft 113kts
21-Sep-20 15:55 34.814920 -120.155004 140 7009ft 111kts
21-Sep-20 15:56 34.793467 -120.127882 140 7003ft 110kts
21-Sep-20 15:57 34.772269 -120.101104 140 6998ft 109kts
21-Sep-20 15:58 34.751157 -120.074456 140 6994ft 109kts
21-Sep-20 15:59 34.730134 -120.047939 140 6992ft 108kts
21-Sep-20 16:00 34.709158 -120.021503 140 6991ft 108kts
21-Sep-20 16:01 34.688212 -119.995126 139 6991ft 108kts
21-Sep-20 16:02 34.667161 -119.968637 139 6991ft 108kts
21-Sep-20 16:03 34.646183 -119.942260 139 6992ft 108kts
21-Sep-20 16:04 34.625283 -119.916002 140 7000ft 108kts
21-Sep-20 16:05 34.604251 -119.889594 140 7000ft 108kts
21-Sep-20 16:06 34.583255 -119.863260 139 7000ft 108kts
21-Sep-20 16:07 34.562472 -119.837211 139 7000ft 108kts
21-Sep-20 16:07 34.544668 -119.814910 139 7000ft 108kts
21-Sep-20 16:09 34.520137 -119.784208 139 7000ft 108kts
21-Sep-20 16:09 34.504223 -119.760461 130 7000ft 110kts
21-Sep-20 16:10 34.486915 -119.729002 129 7001ft 110kts
21-Sep-20 16:11 34.469744 -119.697469 129 7002ft 110kts
21-Sep-20 16:12 34.452628 -119.665962 129 7003ft 110kts
21-Sep-20 16:13 34.435653 -119.634717 129 7004ft 110kts
21-Sep-20 16:14 34.418745 -119.603613 129 7006ft 110kts
21-Sep-20 16:15 34.401804 -119.572475 129 7007ft 110kts
21-Sep-20 16:16 34.384579 -119.540842 129 7008ft 110kts
21-Sep-20 16:17 34.367418 -119.509355 129 7009ft 110kts
21-Sep-20 16:18 34.350348 -119.478063 129 7009ft 110kts
21-Sep-20 16:19 34.333471 -119.447149 129 7009ft 111kts
21-Sep-20 16:20 34.319102 -119.413786 96 7000ft 116kts
21-Sep-20 16:21 34.320446 -119.374481 90 7005ft 117kts
21-Sep-20 16:22 34.323051 -119.335310 90 7008ft 117kts
21-Sep-20 16:23 34.325950 -119.295932 89 7008ft 117kts
21-Sep-20 16:24 34.328910 -119.256589 89 7007ft 117kts
21-Sep-20 16:25 34.331473 -119.222585 89 7006ft 117kts
21-Sep-20 16:26 34.334835 -119.177857 89 7004ft 117kts
21-Sep-20 16:27 34.337773 -119.138608 89 7003ft 117kts
21-Sep-20 16:28 34.340727 -119.098968 89 7001ft 117kts
21-Sep-20 16:29 34.343650 -119.059565 89 7000ft 117kts
21-Sep-20 16:30 34.346574 -119.020044 89 6999ft 117kts
21-Sep-20 16:31 34.349476 -118.980539 89 6999ft 117kts
21-Sep-20 16:32 34.352352 -118.941206 89 6999ft 117kts
21-Sep-20 16:33 34.355225 -118.901730 89 6999ft 117kts
21-Sep-20 16:34 34.363252 -118.862265 71 6784ft 127kts
21-Sep-20 16:35 34.376406 -118.823300 71 6291ft 127kts
21-Sep-20 16:36 34.389959 -118.783458 71 6018ft 122kts
21-Sep-20 16:37 34.402721 -118.745858 71 6023ft 119kts
21-Sep-20 16:38 34.415286 -118.708825 72 6027ft 118kts
21-Sep-20 16:39 34.427663 -118.672195 72 6032ft 116kts
21-Sep-20 16:40 34.439689 -118.636609 72 6036ft 114kts
21-Sep-20 16:41 34.451683 -118.601084 72 6039ft 112kts
21-Sep-20 16:42 34.463429 -118.566260 72 6043ft 110kts
21-Sep-20 16:43 34.474955 -118.532028 73 6044ft 110kts
21-Sep-20 16:44 34.454373 -118.513666 171 5577ft 111kts
21-Sep-20 16:45 34.423222 -118.510554 173 5074ft 113kts
21-Sep-20 16:46 34.391642 -118.507537 173 4568ft 114kts
21-Sep-20 16:47 34.360095 -118.504605 173 4059ft 114kts
21-Sep-20 16:48 34.328378 -118.501652 172 3417ft 113kts
21-Sep-20 16:49 34.297690 -118.498730 173 2730ft 109kts
21-Sep-20 16:50 34.267688 -118.495877 173 2047ft 107kts
21-Sep-20 16:51 34.243491 -118.493567 172 1504ft 70kts
21-Sep-20 16:52 34.225795 -118.491822 171 1097ft 59kts
21-Sep-20 16:53 34.210756 -118.490479 189 806ft 22kts
21-Sep-20 16:54 34.209049 -118.491468 175 806ft 21kts
21-Sep-20 16:55 34.206297 -118.492568 179 806ft 0kts

Navigation Log

Ident Type
Flight plan parsing failed, navigation log unavailable